createdAt,value
2019-03-30T00:00:46.912Z,16.33
2019-03-30T00:03:15.305Z,17.20
2019-03-30T00:05:43.615Z,16.43
2019-03-30T00:08:11.901Z,15.90
2019-03-30T00:10:40.197Z,16.30
2019-03-30T00:13:08.473Z,16.70
2019-03-30T00:15:36.741Z,16.73
2019-03-30T00:18:05.025Z,17.03
2019-03-30T00:20:33.262Z,15.93
2019-03-30T00:23:01.546Z,16.37
2019-03-30T00:25:29.828Z,16.07
2019-03-30T00:27:58.145Z,15.80
2019-03-30T00:30:26.482Z,16.07
2019-03-30T00:32:54.739Z,15.40
2019-03-30T00:35:22.927Z,14.93
2019-03-30T00:37:51.199Z,16.20
2019-03-30T00:40:19.381Z,16.80
2019-03-30T00:42:47.643Z,16.10
2019-03-30T00:45:15.957Z,15.63
2019-03-30T00:47:44.226Z,15.60
2019-03-30T00:50:12.717Z,16.93
2019-03-30T00:52:41.074Z,16.73
2019-03-30T00:55:09.381Z,17.20
2019-03-30T00:57:37.716Z,16.20
2019-03-30T01:00:06.774Z,16.10
2019-03-30T01:02:35.162Z,16.70
2019-03-30T01:05:03.516Z,16.70
2019-03-30T01:07:31.769Z,15.80
2019-03-30T01:10:00.274Z,16.63
2019-03-30T01:12:28.509Z,15.90
2019-03-30T01:14:56.799Z,15.97
2019-03-30T01:17:25.084Z,16.00
2019-03-30T01:20:02.856Z,16.43
2019-03-30T01:22:23.267Z,17.00
2019-03-30T01:24:51.537Z,16.63
2019-03-30T01:27:19.831Z,16.83
2019-03-30T01:29:48.096Z,18.30
2019-03-30T01:32:16.384Z,16.90
2019-03-30T01:34:44.622Z,16.40
2019-03-30T01:37:12.821Z,16.40
2019-03-30T01:39:41.073Z,16.00
2019-03-30T01:42:09.363Z,16.17
2019-03-30T01:44:37.641Z,16.77
2019-03-30T01:47:05.893Z,16.93
2019-03-30T01:49:34.204Z,16.60
2019-03-30T01:52:02.475Z,16.27
2019-03-30T01:54:30.765Z,16.70
2019-03-30T01:56:59.004Z,15.90
2019-03-30T01:59:27.307Z,17.90
2019-03-30T02:01:55.645Z,16.40
2019-03-30T02:04:23.988Z,16.47
2019-03-30T02:06:52.335Z,16.03
2019-03-30T02:09:20.646Z,16.60
2019-03-30T02:11:48.978Z,16.40
2019-03-30T02:14:17.330Z,15.10
2019-03-30T02:16:45.650Z,15.93
2019-03-30T02:19:13.922Z,15.90
2019-03-30T02:21:42.175Z,15.63
2019-03-30T02:24:10.379Z,15.50
2019-03-30T02:26:38.632Z,16.40
2019-03-30T02:29:06.928Z,16.30
2019-03-30T02:31:35.208Z,17.07
2019-03-30T02:34:03.462Z,15.37
2019-03-30T02:36:31.828Z,15.57
2019-03-30T02:39:00.112Z,15.63
2019-03-30T02:41:28.439Z,14.83
2019-03-30T02:43:56.757Z,16.17
2019-03-30T02:46:25.051Z,17.13
2019-03-30T02:48:53.345Z,16.53
2019-03-30T02:51:21.609Z,15.50
2019-03-30T02:53:49.950Z,15.90
2019-03-30T02:56:18.273Z,16.70
2019-03-30T02:58:46.547Z,14.93
2019-03-30T03:01:14.804Z,16.43
2019-03-30T03:03:43.082Z,16.67
2019-03-30T03:06:12.411Z,16.67
2019-03-30T03:08:40.660Z,16.80
2019-03-30T03:11:08.948Z,16.87
2019-03-30T03:13:37.201Z,16.27
2019-03-30T03:16:05.533Z,16.03
2019-03-30T03:18:33.900Z,15.90
2019-03-30T03:21:07.993Z,15.90
2019-03-30T03:23:32.054Z,15.50
2019-03-30T03:26:00.338Z,16.10
2019-03-30T03:28:28.621Z,16.70
2019-03-30T03:30:56.913Z,14.70
2019-03-30T03:33:25.160Z,16.53
2019-03-30T03:35:53.479Z,16.30
2019-03-30T03:38:21.719Z,16.80
2019-03-30T03:40:50.104Z,16.57
2019-03-30T03:43:18.396Z,15.77
2019-03-30T03:45:46.690Z,16.37
2019-03-30T03:48:15.067Z,16.40
2019-03-30T03:50:44.068Z,16.87
2019-03-30T03:53:13.459Z,16.30
2019-03-30T03:55:41.803Z,16.87
2019-03-30T03:58:10.891Z,16.70
2019-03-30T04:00:39.278Z,15.93
2019-03-30T04:03:08.501Z,17.90
2019-03-30T04:05:37.179Z,16.60
2019-03-30T04:08:05.908Z,14.93
2019-03-30T04:10:35.632Z,15.93
2019-03-30T04:13:07.123Z,16.23
2019-03-30T04:15:35.482Z,15.97
2019-03-30T04:18:03.671Z,17.00
2019-03-30T04:20:31.947Z,16.90
2019-03-30T04:23:00.266Z,16.60
2019-03-30T04:25:28.541Z,16.10
2019-03-30T04:27:56.884Z,17.37
2019-03-30T04:30:25.154Z,16.90
2019-03-30T04:32:53.428Z,17.10
2019-03-30T04:35:21.694Z,16.03
2019-03-30T04:37:49.984Z,16.70
2019-03-30T04:40:18.244Z,16.23
2019-03-30T04:42:46.548Z,15.93
2019-03-30T04:45:14.811Z,14.23
2019-03-30T04:47:43.071Z,16.20
2019-03-30T04:50:11.764Z,16.27
2019-03-30T04:52:41.063Z,16.50
2019-03-30T04:55:09.388Z,15.97
2019-03-30T04:57:37.637Z,16.37
2019-03-30T05:00:06.444Z,15.30
2019-03-30T05:02:34.665Z,14.87
2019-03-30T05:05:02.993Z,14.47
2019-03-30T05:07:31.354Z,15.60
2019-03-30T05:09:59.644Z,16.20
2019-03-30T05:12:27.895Z,14.97
2019-03-30T05:14:56.167Z,15.90
2019-03-30T05:17:24.449Z,14.93
2019-03-30T05:19:52.730Z,15.03
2019-03-30T05:22:21.010Z,15.50
2019-03-30T05:24:49.288Z,17.80
2019-03-30T05:27:17.557Z,14.90
2019-03-30T05:29:45.814Z,14.00
2019-03-30T05:32:14.110Z,14.67
2019-03-30T05:34:42.410Z,14.90
2019-03-30T05:37:10.748Z,15.17
2019-03-30T05:39:39.040Z,14.80
2019-03-30T05:42:07.322Z,16.40
2019-03-30T05:44:35.594Z,17.37
2019-03-30T05:47:03.874Z,16.20
2019-03-30T05:49:32.126Z,15.00
2019-03-30T05:52:00.751Z,16.33
2019-03-30T05:54:29.084Z,15.83
2019-03-30T05:56:57.348Z,15.27
2019-03-30T05:59:25.562Z,16.87
2019-03-30T06:01:53.833Z,17.97
2019-03-30T06:04:22.173Z,17.27
2019-03-30T06:06:50.479Z,18.47
2019-03-30T06:09:18.778Z,18.87
2019-03-30T06:11:47.112Z,18.80
2019-03-30T06:14:15.324Z,17.70
2019-03-30T06:16:43.594Z,18.33
2019-03-30T06:19:11.854Z,19.10
2019-03-30T06:21:40.153Z,19.70
2019-03-30T06:24:08.418Z,20.13
2019-03-30T06:26:36.716Z,19.20
2019-03-30T06:29:04.948Z,20.03
2019-03-30T06:31:33.260Z,18.57
2019-03-30T06:34:01.505Z,20.60
2019-03-30T06:36:29.787Z,18.27
2019-03-30T06:38:57.985Z,19.07
2019-03-30T06:41:26.238Z,19.10
2019-03-30T06:43:54.548Z,19.43
2019-03-30T06:46:22.826Z,18.00
2019-03-30T06:48:51.072Z,19.17
2019-03-30T06:51:19.354Z,18.23
2019-03-30T06:53:47.631Z,18.97
2019-03-30T06:56:15.980Z,19.30
2019-03-30T06:58:44.295Z,19.87
2019-03-30T07:01:12.578Z,18.70
2019-03-30T07:03:40.995Z,19.07
2019-03-30T07:06:10.425Z,18.17
2019-03-30T07:08:40.327Z,18.20
2019-03-30T07:11:20.499Z,18.47
2019-03-30T07:13:39.889Z,17.80
2019-03-30T07:16:08.162Z,17.60
2019-03-30T07:18:36.538Z,18.00
2019-03-30T07:21:05.864Z,18.00
2019-03-30T07:23:34.091Z,18.33
2019-03-30T07:26:02.290Z,17.30
2019-03-30T07:28:30.572Z,19.00
2019-03-30T07:30:58.854Z,17.60
2019-03-30T07:33:27.098Z,17.40
2019-03-30T07:35:55.388Z,17.60
2019-03-30T07:38:23.711Z,18.10
2019-03-30T07:40:52.035Z,18.33
2019-03-30T07:43:20.305Z,18.67
2019-03-30T07:45:48.622Z,17.40
2019-03-30T07:48:16.915Z,18.33
2019-03-30T07:50:45.268Z,16.90
2019-03-30T07:53:25.700Z,18.03
2019-03-30T07:55:43.458Z,16.97
2019-03-30T07:58:11.729Z,17.30
2019-03-30T08:00:40.009Z,17.03
2019-03-30T08:03:08.256Z,16.63
2019-03-30T08:05:36.588Z,17.73
2019-03-30T08:08:04.918Z,17.40
2019-03-30T08:10:33.105Z,16.80
2019-03-30T08:13:03.399Z,17.30
2019-03-30T08:15:31.699Z,17.10
2019-03-30T08:18:01.959Z,17.17
2019-03-30T08:20:30.309Z,18.23
2019-03-30T08:22:58.588Z,17.10
2019-03-30T08:25:26.879Z,17.37
2019-03-30T08:27:55.145Z,17.27
2019-03-30T08:30:23.440Z,17.27
2019-03-30T08:32:51.773Z,17.73
2019-03-30T08:35:19.947Z,17.10
2019-03-30T08:37:48.281Z,17.00
2019-03-30T08:40:16.614Z,17.53
2019-03-30T08:42:44.904Z,17.87
2019-03-30T08:45:13.154Z,17.30
2019-03-30T08:47:41.366Z,17.33
2019-03-30T08:50:09.723Z,17.90
2019-03-30T08:52:38.007Z,17.63
2019-03-30T08:55:07.046Z,17.07
2019-03-30T08:57:35.395Z,18.77
2019-03-30T09:00:04.012Z,17.97
2019-03-30T09:02:32.228Z,18.63
2019-03-30T09:05:00.507Z,18.70
2019-03-30T09:07:28.808Z,18.70
2019-03-30T09:09:57.169Z,20.30
2019-03-30T09:12:25.431Z,18.77
2019-03-30T09:14:53.727Z,18.33
2019-03-30T09:17:22.094Z,18.67
2019-03-30T09:19:50.377Z,19.33
2019-03-30T09:22:18.650Z,18.70
2019-03-30T09:24:47.013Z,18.70
2019-03-30T09:27:15.194Z,17.60
2019-03-30T09:29:43.475Z,19.57
2019-03-30T09:32:14.579Z,19.30
2019-03-30T09:34:41.669Z,22.87
2019-03-30T09:37:09.972Z,20.77
2019-03-30T09:39:38.309Z,18.30
2019-03-30T09:42:06.597Z,18.47
2019-03-30T09:44:34.873Z,19.17
2019-03-30T09:47:03.150Z,18.37
2019-03-30T09:49:31.428Z,19.30
2019-03-30T09:52:01.737Z,18.07
2019-03-30T09:54:29.988Z,17.87
2019-03-30T09:56:58.338Z,19.60
2019-03-30T09:59:26.716Z,19.30
2019-03-30T10:01:55.038Z,17.97
2019-03-30T10:04:23.237Z,18.80
2019-03-30T10:06:51.559Z,17.70
2019-03-30T10:09:19.875Z,17.30
2019-03-30T10:11:48.157Z,18.10
2019-03-30T10:14:16.450Z,18.17
2019-03-30T10:16:44.705Z,17.30
2019-03-30T10:19:13.009Z,17.20
2019-03-30T10:21:41.270Z,18.10
2019-03-30T10:24:09.556Z,18.27
2019-03-30T10:26:37.919Z,17.47
2019-03-30T10:29:06.177Z,15.90
2019-03-30T10:31:35.468Z,16.60
2019-03-30T10:34:03.745Z,17.53
2019-03-30T10:36:32.170Z,16.20
2019-03-30T10:39:00.586Z,16.47
2019-03-30T10:41:28.923Z,15.97
2019-03-30T10:43:57.301Z,16.13
2019-03-30T10:46:25.660Z,16.60
2019-03-30T10:48:53.933Z,16.40
2019-03-30T10:51:22.191Z,17.50
2019-03-30T10:53:50.399Z,17.20
2019-03-30T10:56:18.706Z,15.60
2019-03-30T10:58:47.051Z,15.37
2019-03-30T11:01:15.345Z,15.83
2019-03-30T11:03:43.703Z,16.07
2019-03-30T11:06:13.049Z,16.00
2019-03-30T11:08:41.392Z,15.97
2019-03-30T11:11:09.781Z,15.40
2019-03-30T11:13:38.037Z,16.70
2019-03-30T11:16:06.308Z,15.97
2019-03-30T11:18:34.592Z,15.50
2019-03-30T11:21:02.887Z,15.17
2019-03-30T11:23:31.306Z,16.47
2019-03-30T11:25:59.635Z,15.83
2019-03-30T11:28:27.900Z,15.80
2019-03-30T11:30:56.263Z,16.37
2019-03-30T11:33:24.596Z,16.23
2019-03-30T11:35:52.822Z,15.27
2019-03-30T11:38:21.096Z,16.10
2019-03-30T11:40:49.380Z,16.90
2019-03-30T11:43:17.838Z,15.90
2019-03-30T11:45:46.129Z,15.13
2019-03-30T11:48:14.457Z,17.60
2019-03-30T11:50:42.744Z,16.90
2019-03-30T11:53:11.448Z,16.60
2019-03-30T11:55:39.763Z,20.60
2019-03-30T11:58:08.069Z,16.87
2019-03-30T12:00:36.506Z,15.50
2019-03-30T12:03:04.893Z,15.60
2019-03-30T12:05:34.742Z,15.57
2019-03-30T12:08:04.285Z,15.83
2019-03-30T12:10:32.592Z,14.70
2019-03-30T12:13:00.871Z,17.83
2019-03-30T12:15:29.150Z,16.30
2019-03-30T12:17:57.442Z,15.33
2019-03-30T12:20:25.792Z,15.83
2019-03-30T12:22:55.632Z,15.17
2019-03-30T12:25:34.952Z,14.07
2019-03-30T12:27:54.858Z,15.03
2019-03-30T12:30:23.203Z,16.17
2019-03-30T12:32:51.497Z,14.97
2019-03-30T12:35:20.061Z,14.13
2019-03-30T12:37:48.360Z,16.00
2019-03-30T12:40:16.714Z,14.97
2019-03-30T12:42:45.233Z,15.87
2019-03-30T12:45:13.782Z,21.23
2019-03-30T12:47:42.049Z,13.30
2019-03-30T12:50:10.756Z,14.10
2019-03-30T12:52:39.126Z,14.33
2019-03-30T12:55:07.456Z,13.70
2019-03-30T12:57:35.720Z,13.47
2019-03-30T13:00:05.045Z,13.27
2019-03-30T13:02:33.327Z,12.30
2019-03-30T13:05:01.756Z,12.77
2019-03-30T13:07:30.051Z,11.47
2019-03-30T13:09:58.257Z,11.37
2019-03-30T13:12:26.664Z,13.53
2019-03-30T13:14:54.942Z,11.13
2019-03-30T13:17:23.216Z,12.60
2019-03-30T13:19:51.475Z,13.37
2019-03-30T13:22:19.761Z,13.00
2019-03-30T13:24:48.042Z,11.83
2019-03-30T13:27:16.305Z,12.23
2019-03-30T13:29:44.605Z,11.87
2019-03-30T13:32:12.908Z,11.40
2019-03-30T13:34:41.252Z,12.40
2019-03-30T13:37:27.536Z,12.40
2019-03-30T13:39:55.884Z,12.10
2019-03-30T13:42:24.115Z,12.63
2019-03-30T13:44:52.353Z,11.83
2019-03-30T13:47:20.633Z,14.10
2019-03-30T13:49:48.950Z,14.97
2019-03-30T13:52:17.324Z,13.40
2019-03-30T13:54:45.589Z,13.20
2019-03-30T13:57:13.914Z,12.73
2019-03-30T13:59:42.241Z,12.93
2019-03-30T14:02:11.542Z,13.20
2019-03-30T14:04:39.808Z,13.90
2019-03-30T14:07:08.143Z,12.77
2019-03-30T14:09:36.357Z,15.00
2019-03-30T14:12:05.683Z,14.33
2019-03-30T14:14:33.980Z,13.50
2019-03-30T14:17:02.306Z,13.93
2019-03-30T14:19:30.715Z,13.23
2019-03-30T14:21:58.990Z,14.20
2019-03-30T14:24:29.311Z,13.40
2019-03-30T14:26:57.586Z,13.10
2019-03-30T14:29:25.887Z,12.87
2019-03-30T14:31:54.237Z,12.50
2019-03-30T14:34:22.551Z,13.47
2019-03-30T14:36:50.884Z,13.57
2019-03-30T14:39:19.178Z,13.30
2019-03-30T14:41:47.462Z,13.93
2019-03-30T14:44:15.738Z,13.30
2019-03-30T14:46:44.003Z,14.30
2019-03-30T14:49:12.398Z,13.63
2019-03-30T14:51:40.655Z,13.30
2019-03-30T14:54:08.932Z,14.03
2019-03-30T14:56:45.484Z,13.60
2019-03-30T14:59:10.333Z,14.80
2019-03-30T15:01:37.240Z,13.93
2019-03-30T15:04:05.545Z,12.80
2019-03-30T15:06:33.880Z,14.60
2019-03-30T15:09:02.843Z,13.27
2019-03-30T15:11:31.289Z,13.00
2019-03-30T15:13:59.608Z,12.67
2019-03-30T15:16:27.916Z,12.97
2019-03-30T15:18:56.210Z,13.13
2019-03-30T15:21:24.839Z,12.40
2019-03-30T15:23:54.165Z,12.90
2019-03-30T15:26:22.482Z,13.77
2019-03-30T15:29:02.220Z,13.83
2019-03-30T15:31:26.721Z,13.10
2019-03-30T15:33:55.061Z,13.13
2019-03-30T15:36:23.689Z,14.90
2019-03-30T15:38:52.274Z,12.67
2019-03-30T15:41:20.782Z,13.13
2019-03-30T15:43:52.022Z,13.03
2019-03-30T15:46:19.113Z,13.13
2019-03-30T15:48:47.557Z,12.77
2019-03-30T15:51:16.066Z,12.67
2019-03-30T15:53:44.617Z,12.60
2019-03-30T15:56:13.024Z,13.37
2019-03-30T15:58:41.358Z,13.33
2019-03-30T16:01:09.811Z,13.00
2019-03-30T16:03:38.134Z,13.30
2019-03-30T16:06:06.492Z,13.10
2019-03-30T16:08:34.783Z,13.40
2019-03-30T16:11:03.156Z,13.80
2019-03-30T16:13:31.551Z,12.77
2019-03-30T16:15:59.786Z,12.60
2019-03-30T16:18:28.054Z,12.30
2019-03-30T16:20:56.365Z,12.80
2019-03-30T16:23:24.705Z,13.57
2019-03-30T16:25:53.067Z,12.20
2019-03-30T16:28:21.395Z,12.80
2019-03-30T16:30:49.757Z,13.20
2019-03-30T16:33:18.385Z,14.03
2019-03-30T16:35:46.672Z,14.40
2019-03-30T16:38:15.170Z,13.47
2019-03-30T16:40:44.679Z,13.30
2019-03-30T16:43:12.931Z,12.67
2019-03-30T16:45:41.271Z,12.90
2019-03-30T16:48:09.819Z,13.33
2019-03-30T16:50:38.216Z,14.83
2019-03-30T16:53:06.611Z,13.50
2019-03-30T16:55:35.089Z,13.77
2019-03-30T16:58:03.345Z,14.47
2019-03-30T17:00:34.789Z,17.27
2019-03-30T17:03:03.500Z,18.70
2019-03-30T17:05:31.846Z,18.83
2019-03-30T17:08:00.139Z,19.20
2019-03-30T17:10:28.515Z,15.70
2019-03-30T17:12:57.050Z,15.50
2019-03-30T17:15:25.372Z,13.70
2019-03-30T17:17:53.716Z,15.13
2019-03-30T17:20:22.048Z,14.60
2019-03-30T17:22:51.330Z,17.37
2019-03-30T17:25:26.441Z,17.13
2019-03-30T17:27:58.412Z,18.30
2019-03-30T17:30:26.894Z,16.00
2019-03-30T17:32:55.174Z,15.17
2019-03-30T17:35:23.878Z,20.00
2019-03-30T17:37:53.231Z,16.93
2019-03-30T17:40:21.598Z,14.20
2019-03-30T17:42:49.986Z,14.97
2019-03-30T17:45:18.328Z,13.70
2019-03-30T17:47:46.640Z,14.47
2019-03-30T17:50:14.927Z,15.10
2019-03-30T17:52:43.230Z,14.63
2019-03-30T17:55:11.493Z,14.30
2019-03-30T17:57:39.793Z,13.93
2019-03-30T18:00:08.669Z,13.13
2019-03-30T18:02:37.086Z,13.73
2019-03-30T18:05:05.721Z,14.20
2019-03-30T18:07:34.002Z,13.20
2019-03-30T18:10:03.818Z,11.80
2019-03-30T18:12:32.220Z,13.20
2019-03-30T18:15:00.701Z,13.50
2019-03-30T18:17:29.264Z,13.73
2019-03-30T18:19:57.528Z,12.03
2019-03-30T18:22:25.807Z,12.50
2019-03-30T18:24:54.105Z,13.53
2019-03-30T18:27:22.478Z,12.80
2019-03-30T18:29:50.841Z,12.60
2019-03-30T18:32:20.145Z,12.63
2019-03-30T18:34:48.625Z,12.80
2019-03-30T18:37:17.182Z,13.67
2019-03-30T18:39:45.612Z,12.53
2019-03-30T18:42:13.948Z,13.23
2019-03-30T18:44:42.197Z,15.93
2019-03-30T18:47:10.604Z,13.37
2019-03-30T18:49:42.369Z,12.90
2019-03-30T18:52:08.826Z,11.90
2019-03-30T18:54:37.090Z,11.50
2019-03-30T18:57:05.480Z,12.03
2019-03-30T18:59:33.722Z,11.73
2019-03-30T19:02:02.065Z,12.20
2019-03-30T19:04:31.256Z,11.40
2019-03-30T19:06:59.619Z,11.70
2019-03-30T19:09:27.896Z,11.80
2019-03-30T19:11:56.136Z,14.90
2019-03-30T19:14:24.441Z,13.60
2019-03-30T19:16:52.713Z,18.77
2019-03-30T19:19:21.410Z,13.97
2019-03-30T19:21:49.780Z,12.97
2019-03-30T19:24:18.040Z,12.90
2019-03-30T19:26:46.320Z,14.27
2019-03-30T19:29:14.696Z,15.83
2019-03-30T19:31:42.987Z,12.80
2019-03-30T19:34:11.245Z,12.07
2019-03-30T19:36:39.513Z,12.87
2019-03-30T19:39:08.552Z,12.77
2019-03-30T19:41:36.810Z,13.33
2019-03-30T19:44:05.099Z,19.27
2019-03-30T19:46:33.442Z,26.57
2019-03-30T19:49:01.758Z,13.63
2019-03-30T19:51:30.107Z,13.20
2019-03-30T19:54:00.064Z,13.27
2019-03-30T19:56:29.351Z,12.60
2019-03-30T19:59:10.015Z,16.43
2019-03-30T20:01:27.624Z,17.27
2019-03-30T20:03:56.085Z,15.37
2019-03-30T20:06:24.365Z,14.60
2019-03-30T20:08:52.670Z,28.70
2019-03-30T20:11:20.938Z,15.23
2019-03-30T20:13:49.211Z,14.97
2019-03-30T20:16:17.493Z,14.87
2019-03-30T20:18:45.739Z,15.80
2019-03-30T20:21:14.141Z,15.33
2019-03-30T20:23:42.418Z,17.23
2019-03-30T20:26:10.693Z,16.60
2019-03-30T20:28:39.390Z,17.20
2019-03-30T20:31:07.724Z,15.67
2019-03-30T20:33:36.125Z,16.00
2019-03-30T20:36:04.456Z,15.90
2019-03-30T20:38:32.734Z,15.80
2019-03-30T20:41:01.075Z,17.00
2019-03-30T20:43:29.424Z,16.40
2019-03-30T20:45:57.703Z,16.90
2019-03-30T20:48:26.006Z,17.53
2019-03-30T20:50:54.264Z,16.77
2019-03-30T20:53:22.672Z,17.73
2019-03-30T20:55:50.918Z,16.97
2019-03-30T20:58:19.222Z,16.97
2019-03-30T21:00:47.573Z,17.37
2019-03-30T21:03:15.884Z,18.40
2019-03-30T21:05:44.224Z,17.37
2019-03-30T21:08:12.543Z,17.13
2019-03-30T21:10:40.829Z,15.40
2019-03-30T21:13:09.395Z,17.63
2019-03-30T21:15:37.854Z,17.20
2019-03-30T21:18:06.098Z,17.50
2019-03-30T21:20:34.437Z,17.93
2019-03-30T21:23:02.844Z,16.90
2019-03-30T21:25:31.201Z,18.50
2019-03-30T21:27:59.670Z,17.27
2019-03-30T21:30:28.042Z,18.03
2019-03-30T21:32:56.370Z,17.63
2019-03-30T21:35:24.829Z,16.43
2019-03-30T21:37:53.206Z,17.20
2019-03-30T21:40:21.529Z,16.43
2019-03-30T21:42:49.932Z,17.13
2019-03-30T21:45:18.361Z,17.60
2019-03-30T21:47:46.658Z,16.63
2019-03-30T21:50:14.926Z,15.80
2019-03-30T21:52:43.344Z,15.83
2019-03-30T21:55:11.789Z,15.83
2019-03-30T21:57:41.109Z,16.70
2019-03-30T22:00:10.953Z,16.60
2019-03-30T22:02:39.502Z,16.13
2019-03-30T22:05:07.975Z,14.90
2019-03-30T22:07:36.885Z,14.93
2019-03-30T22:10:06.380Z,16.27
2019-03-30T22:12:34.667Z,15.07
2019-03-30T22:15:03.053Z,15.10
2019-03-30T22:17:31.392Z,15.27
2019-03-30T22:19:59.681Z,16.10
2019-03-30T22:22:27.970Z,15.60
2019-03-30T22:24:56.278Z,16.07
2019-03-30T22:27:24.655Z,16.07
2019-03-30T22:29:52.973Z,15.13
2019-03-30T22:32:21.187Z,13.50
2019-03-30T22:34:49.463Z,13.80
2019-03-30T22:37:17.829Z,12.97
2019-03-30T22:39:46.194Z,13.50
2019-03-30T22:42:14.481Z,14.70
2019-03-30T22:44:42.738Z,16.30
2019-03-30T22:47:11.029Z,16.13
2019-03-30T22:49:39.308Z,16.30
2019-03-30T22:52:07.560Z,16.13
2019-03-30T22:54:35.847Z,17.17
2019-03-30T22:57:04.145Z,16.03
2019-03-30T22:59:32.394Z,16.83
2019-03-30T23:02:00.690Z,16.20
2019-03-30T23:04:28.954Z,16.20
2019-03-30T23:06:57.237Z,16.47
2019-03-30T23:09:25.712Z,14.90
2019-03-30T23:11:54.057Z,14.50
2019-03-30T23:14:22.431Z,15.00
2019-03-30T23:16:50.658Z,16.60
2019-03-30T23:19:18.969Z,16.57
2019-03-30T23:21:47.293Z,15.73
2019-03-30T23:24:15.568Z,16.60
2019-03-30T23:26:43.891Z,17.40
2019-03-30T23:29:12.237Z,15.10
2019-03-30T23:31:40.750Z,14.30
2019-03-30T23:34:09.112Z,13.90
2019-03-30T23:36:37.450Z,14.53
2019-03-30T23:39:07.097Z,14.80
2019-03-30T23:41:35.389Z,14.60
2019-03-30T23:44:03.618Z,14.43
2019-03-30T23:46:31.935Z,14.07
2019-03-30T23:49:01.221Z,13.97
2019-03-30T23:51:29.461Z,15.07
2019-03-30T23:53:57.715Z,14.00
2019-03-30T23:56:26.590Z,13.00
2019-03-30T23:58:55.036Z,13.33
